Time;durP1;ratioP1;P1;durP2;ratioP2;P2;SDS_P1;SDS_P2;PMS_P1;PMS_P2;Temp;Humidity;BMP_temperature;BMP_pressure;BME280_temperature;BME280_humidity;BME280_pressure;Samples;Min_cycle;Max_cycle;Signal;HPM_P1;HPM_P2
2022/10/10 00:00:15;;;;;;;7.05;4.60;;;;;;;;;;5050424;28;20869;-75
2022/10/10 00:02:40;;;;;;;9.98;4.60;;;;;;;;;;5049478;28;20024;-75
2022/10/10 00:05:06;;;;;;;9.35;4.45;;;;;;;;;;5067945;28;20436;-75
2022/10/10 00:07:31;;;;;;;7.60;4.32;;;;;;;;;;5034891;28;20454;-75
2022/10/10 00:09:56;;;;;;;6.17;4.67;;;;;;;;;;5068295;28;20471;-75
2022/10/10 00:12:21;;;;;;;11.83;5.67;;;;;;;;;;5068966;28;20883;-75
2022/10/10 00:14:47;;;;;;;11.48;6.00;;;;;;;;;;5067813;28;20761;-76
2022/10/10 00:17:12;;;;;;;8.47;5.17;;;;;;;;;;5048611;28;20013;-76
2022/10/10 00:19:37;;;;;;;8.70;5.60;;;;;;;;;;5068924;28;20266;-76
2022/10/10 00:22:02;;;;;;;9.45;5.03;;;;;;;;;;5049466;28;20111;-76
2022/10/10 00:24:28;;;;;;;9.27;5.30;;;;;;;;;;5050560;28;20558;-76
2022/10/10 00:26:53;;;;;;;10.07;5.17;;;;;;;;;;5036552;28;20713;-76
2022/10/10 00:29:18;;;;;;;8.63;5.90;;;;;;;;;;5064554;28;20772;-76
2022/10/10 00:31:43;;;;;;;7.30;4.80;;;;;;;;;;5052249;28;20040;-75
2022/10/10 00:34:08;;;;;;;10.00;5.15;;;;;;;;;;5043599;28;20033;-75
2022/10/10 00:36:34;;;;;;;11.13;5.95;;;;;;;;;;5071637;28;20040;-75
2022/10/10 00:39:00;;;;;;;8.75;5.25;;;;;;;;;;5053560;28;20490;-75
2022/10/10 00:41:25;;;;;;;12.45;5.45;;;;;;;;;;5071348;28;20052;-75
2022/10/10 00:44:01;;;;;;;11.50;5.60;;;;;;;;;;5071924;28;20047;-75
2022/10/10 00:46:27;;;;;;;8.50;5.30;;;;;;;;;;5052715;28;20029;-75
2022/10/10 00:48:52;;;;;;;7.47;5.60;;;;;;;;;;5050998;28;20030;-76
2022/10/10 00:51:18;;;;;;;18.83;6.65;;;;;;;;;;5053445;28;20077;-76
2022/10/10 00:53:44;;;;;;;8.32;5.53;;;;;;;;;;5052447;28;20623;-75
2022/10/10 00:56:11;;;;;;;8.43;5.47;;;;;;;;;;5070737;28;20020;-75
2022/10/10 00:58:38;;;;;;;8.77;5.25;;;;;;;;;;5051075;28;20045;-75
2022/10/10 01:01:03;;;;;;;8.45;5.25;;;;;;;;;;5067155;28;20043;-74
2022/10/10 01:03:29;;;;;;;13.35;6.65;;;;;;;;;;5047092;28;20017;-74
2022/10/10 01:05:54;;;;;;;10.77;5.20;;;;;;;;;;5053379;28;20082;-75
2022/10/10 01:08:19;;;;;;;7.03;5.05;;;;;;;;;;5053308;28;20024;-74
2022/10/10 01:10:51;;;;;;;10.55;5.22;;;;;;;;;;5070817;28;20027;-74
2022/10/10 01:13:32;;;;;;;6.85;5.18;;;;;;;;;;5071679;28;20020;-74
2022/10/10 01:16:00;;;;;;;9.75;6.15;;;;;;;;;;5041999;28;20024;-74
2022/10/10 01:18:30;;;;;;;8.70;5.63;;;;;;;;;;5048832;28;20024;-76
2022/10/10 01:20:58;;;;;;;12.00;6.40;;;;;;;;;;5050919;28;20028;-75
2022/10/10 01:23:34;;;;;;;7.13;4.88;;;;;;;;;;5051877;28;20035;-75
2022/10/10 01:26:18;;;;;;;8.88;4.65;;;;;;;;;;5087016;28;20036;-76
2022/10/10 01:28:53;;;;;;;12.20;4.70;;;;;;;;;;5070372;28;20028;-75
2022/10/10 01:31:21;;;;;;;8.73;4.82;;;;;;;;;;5052132;28;20082;-75
2022/10/10 01:34:04;;;;;;;8.95;5.50;;;;;;;;;;5070553;28;20104;-75
2022/10/10 01:36:33;;;;;;;9.63;5.40;;;;;;;;;;5054170;28;20111;-74
2022/10/10 01:39:04;;;;;;;8.63;5.10;;;;;;;;;;5053041;28;20238;-75
2022/10/10 01:41:31;;;;;;;9.32;5.47;;;;;;;;;;5053641;28;20031;-75
2022/10/10 01:43:57;;;;;;;10.75;5.75;;;;;;;;;;5071103;28;20019;-75
2022/10/10 01:46:22;;;;;;;8.77;5.22;;;;;;;;;;5074268;28;20029;-75
2022/10/10 01:48:50;;;;;;;9.82;6.07;;;;;;;;;;5048357;28;20105;-75
2022/10/10 01:51:18;;;;;;;6.70;5.15;;;;;;;;;;5046672;28;20025;-75
2022/10/10 01:53:52;;;;;;;9.98;5.95;;;;;;;;;;5064790;28;20028;-75
2022/10/10 01:56:23;;;;;;;12.03;6.60;;;;;;;;;;5067375;28;20047;-75
2022/10/10 01:58:58;;;;;;;11.57;6.35;;;;;;;;;;5050705;28;20262;-76
2022/10/10 02:01:23;;;;;;;;;;;;;;;;;;5053094;28;20071;-75
2022/10/10 02:04:01;;;;;;;12.18;6.93;;;;;;;;;;5087181;28;20447;-75
2022/10/10 02:06:32;;;;;;;11.88;6.03;;;;;;;;;;5069146;28;20032;-75
2022/10/10 02:09:10;;;;;;;13.45;6.75;;;;;;;;;;5051754;28;20031;-76
2022/10/10 02:11:36;;;;;;;9.55;6.13;;;;;;;;;;5069391;28;20062;-75
2022/10/10 02:14:07;;;;;;;10.52;6.32;;;;;;;;;;5052663;28;20021;-75
2022/10/10 02:16:35;;;;;;;13.65;6.05;;;;;;;;;;5052619;28;20441;-76
2022/10/10 02:19:00;;;;;;;13.27;5.60;;;;;;;;;;5071280;28;20548;-76
2022/10/10 02:21:26;;;;;;;8.40;5.55;;;;;;;;;;5052506;28;20103;-75
2022/10/10 02:23:52;;;;;;;11.48;5.68;;;;;;;;;;5070478;28;20615;-75
2022/10/10 02:26:20;;;;;;;8.20;5.63;;;;;;;;;;5052563;28;20021;-75
2022/10/10 02:28:52;;;;;;;15.93;6.18;;;;;;;;;;5051930;28;20073;-75
2022/10/10 02:31:20;;;;;;;13.35;5.97;;;;;;;;;;5070373;28;20024;-75
2022/10/10 02:33:55;;;;;;;12.70;5.97;;;;;;;;;;5069958;28;20021;-75
2022/10/10 02:36:21;;;;;;;9.55;5.85;;;;;;;;;;5069560;28;20054;-75
2022/10/10 02:38:46;;;;;;;11.73;6.03;;;;;;;;;;5069619;28;20086;-76
2022/10/10 02:41:13;;;;;;;12.82;5.80;;;;;;;;;;5069303;28;20024;-75
2022/10/10 02:43:38;;;;;;;11.02;5.63;;;;;;;;;;5069381;28;20024;-75
2022/10/10 02:46:06;;;;;;;9.52;5.30;;;;;;;;;;5048606;28;20475;-75
2022/10/10 02:48:31;;;;;;;7.53;4.65;;;;;;;;;;5051189;28;20025;-75
2022/10/10 02:50:56;;;;;;;13.88;5.45;;;;;;;;;;5087559;28;20505;-76
2022/10/10 02:53:22;;;;;;;11.60;4.82;;;;;;;;;;5069236;28;20048;-75
2022/10/10 02:55:47;;;;;;;10.60;5.23;;;;;;;;;;5068790;28;20020;-75
2022/10/10 02:58:13;;;;;;;7.90;4.35;;;;;;;;;;5049852;28;20316;-75
2022/10/10 03:00:38;;;;;;;9.13;4.47;;;;;;;;;;5068099;28;20063;-75
2022/10/10 03:03:03;;;;;;;10.65;5.57;;;;;;;;;;5069095;28;20032;-75
2022/10/10 03:05:28;;;;;;;7.22;4.60;;;;;;;;;;5068571;28;20024;-76
2022/10/10 03:07:54;;;;;;;12.52;5.57;;;;;;;;;;5040383;28;20485;-75
2022/10/10 03:10:19;;;;;;;10.43;4.90;;;;;;;;;;5068664;28;20494;-75
2022/10/10 03:12:44;;;;;;;7.80;5.10;;;;;;;;;;5049859;28;20471;-75
2022/10/10 03:15:09;;;;;;;8.40;4.68;;;;;;;;;;5067182;28;20685;-75
2022/10/10 03:17:34;;;;;;;9.50;4.47;;;;;;;;;;5042298;28;20029;-75
2022/10/10 03:20:00;;;;;;;9.30;4.43;;;;;;;;;;5078669;28;20024;-75
2022/10/10 03:22:25;;;;;;;10.02;4.90;;;;;;;;;;5045709;28;20013;-75
2022/10/10 03:24:50;;;;;;;8.03;4.73;;;;;;;;;;5065234;28;20025;-75
2022/10/10 03:27:15;;;;;;;7.63;4.18;;;;;;;;;;5067123;28;20286;-76
2022/10/10 03:29:41;;;;;;;6.32;4.18;;;;;;;;;;5045516;28;20023;-75
2022/10/10 03:32:06;;;;;;;7.13;3.93;;;;;;;;;;5049499;28;20465;-75
2022/10/10 03:34:31;;;;;;;6.28;3.75;;;;;;;;;;5067870;28;20914;-75
2022/10/10 03:36:56;;;;;;;18.02;5.05;;;;;;;;;;5048228;28;20156;-75
2022/10/10 03:39:21;;;;;;;10.33;4.23;;;;;;;;;;5048427;28;20022;-75
2022/10/10 03:41:49;;;;;;;12.83;4.17;;;;;;;;;;5045609;28;20286;-75
2022/10/10 03:44:14;;;;;;;6.05;3.55;;;;;;;;;;5064605;28;20327;-75
2022/10/10 03:46:39;;;;;;;8.43;3.90;;;;;;;;;;5049658;28;20032;-77
2022/10/10 03:49:04;;;;;;;9.60;3.80;;;;;;;;;;5045073;28;20017;-76
2022/10/10 03:51:30;;;;;;;7.25;4.18;;;;;;;;;;5038958;28;20275;-75
2022/10/10 03:53:55;;;;;;;8.55;3.67;;;;;;;;;;5034415;28;20472;-76
2022/10/10 03:56:20;;;;;;;11.40;4.07;;;;;;;;;;5049697;28;20024;-76
2022/10/10 03:58:45;;;;;;;11.40;3.92;;;;;;;;;;5048336;28;20051;-76
2022/10/10 04:01:11;;;;;;;9.75;4.00;;;;;;;;;;5066088;28;20021;-76
2022/10/10 04:03:36;;;;;;;6.32;4.00;;;;;;;;;;5049293;28;20803;-76
2022/10/10 04:06:01;;;;;;;8.20;4.07;;;;;;;;;;5048493;28;20028;-75
2022/10/10 04:08:28;;;;;;;8.20;4.00;;;;;;;;;;5049526;28;20043;-76
2022/10/10 04:10:54;;;;;;;7.10;3.85;;;;;;;;;;5046802;28;20390;-76
2022/10/10 04:13:20;;;;;;;8.23;3.83;;;;;;;;;;5064282;28;20023;-76
2022/10/10 04:15:48;;;;;;;9.13;3.90;;;;;;;;;;5066955;28;20016;-75
2022/10/10 04:18:13;;;;;;;5.47;3.55;;;;;;;;;;5067762;28;20094;-75
2022/10/10 04:20:38;;;;;;;6.13;3.80;;;;;;;;;;5067237;28;20020;-75
2022/10/10 04:23:03;;;;;;;11.13;4.10;;;;;;;;;;5049046;28;20016;-75
2022/10/10 04:25:29;;;;;;;5.57;3.67;;;;;;;;;;5053474;28;20024;-77
2022/10/10 04:27:54;;;;;;;8.45;4.32;;;;;;;;;;5049038;28;20020;-75
2022/10/10 04:30:19;;;;;;;7.03;4.57;;;;;;;;;;5067355;28;20428;-75
2022/10/10 04:32:45;;;;;;;5.00;3.53;;;;;;;;;;5067952;28;20417;-75
2022/10/10 04:35:10;;;;;;;7.43;3.70;;;;;;;;;;5041269;28;20033;-75
2022/10/10 04:37:35;;;;;;;9.45;3.60;;;;;;;;;;5046198;28;20029;-75
2022/10/10 04:40:01;;;;;;;7.63;3.88;;;;;;;;;;5048227;28;20031;-75
2022/10/10 04:42:26;;;;;;;6.47;3.40;;;;;;;;;;5067554;28;20391;-75
2022/10/10 04:44:51;;;;;;;7.35;3.95;;;;;;;;;;5039125;28;20016;-75
2022/10/10 04:47:16;;;;;;;7.70;4.05;;;;;;;;;;5056308;28;20136;-75
2022/10/10 04:49:42;;;;;;;6.28;4.10;;;;;;;;;;5047571;28;20052;-75
2022/10/10 04:52:08;;;;;;;8.88;3.40;;;;;;;;;;5072913;28;20036;-76
2022/10/10 04:54:33;;;;;;;5.82;3.65;;;;;;;;;;5065546;28;20127;-75
2022/10/10 04:56:58;;;;;;;7.85;3.90;;;;;;;;;;5040567;28;20108;-76
2022/10/10 04:59:23;;;;;;;6.80;3.60;;;;;;;;;;5048385;28;20021;-75
2022/10/10 05:01:49;;;;;;;9.25;3.83;;;;;;;;;;5037359;28;20020;-75
2022/10/10 05:04:14;;;;;;;7.57;3.80;;;;;;;;;;5068316;28;20037;-75
2022/10/10 05:06:39;;;;;;;6.25;3.75;;;;;;;;;;5048706;28;20491;-75
2022/10/10 05:09:04;;;;;;;4.15;3.33;;;;;;;;;;5067534;28;20125;-75
2022/10/10 05:11:30;;;;;;;7.22;3.55;;;;;;;;;;5077893;28;20024;-75
2022/10/10 05:13:55;;;;;;;7.38;3.70;;;;;;;;;;5065004;28;20020;-76
2022/10/10 05:16:20;;;;;;;4.90;3.30;;;;;;;;;;5050705;28;20580;-76
2022/10/10 05:18:45;;;;;;;6.82;3.10;;;;;;;;;;5052113;28;20769;-76
2022/10/10 05:21:10;;;;;;;7.82;3.15;;;;;;;;;;5052548;28;20048;-76
2022/10/10 05:23:37;;;;;;;6.25;3.90;;;;;;;;;;5053398;28;20017;-76
2022/10/10 05:26:02;;;;;;;7.55;3.85;;;;;;;;;;5071013;28;20044;-76
2022/10/10 05:28:27;;;;;;;9.73;4.32;;;;;;;;;;5052235;28;20414;-75
2022/10/10 05:30:52;;;;;;;7.45;3.97;;;;;;;;;;5069955;28;20033;-75
2022/10/10 05:33:18;;;;;;;7.60;4.68;;;;;;;;;;5070831;28;20681;-78
2022/10/10 05:35:43;;;;;;;9.23;4.55;;;;;;;;;;5078509;28;20089;-76
2022/10/10 05:38:08;;;;;;;5.55;3.42;;;;;;;;;;5051458;28;20044;-76
2022/10/10 05:40:34;;;;;;;6.43;4.07;;;;;;;;;;5053166;28;20044;-76
2022/10/10 05:42:59;;;;;;;7.15;3.92;;;;;;;;;;5069157;28;20035;-76
2022/10/10 05:45:24;;;;;;;7.38;4.57;;;;;;;;;;5051727;28;20452;-76
2022/10/10 05:47:49;;;;;;;6.63;4.07;;;;;;;;;;5053608;28;20036;-76
2022/10/10 05:50:28;;;;;;;10.25;4.47;;;;;;;;;;5053378;28;20028;-76
2022/10/10 05:52:53;;;;;;;5.70;3.88;;;;;;;;;;5025110;28;20051;-76
2022/10/10 05:55:19;;;;;;;8.13;4.30;;;;;;;;;;5015009;28;20791;-76
2022/10/10 05:57:44;;;;;;;8.00;3.75;;;;;;;;;;5013300;28;20816;-77
2022/10/10 06:00:09;;;;;;;7.32;4.28;;;;;;;;;;5015163;28;20020;-77
2022/10/10 06:02:35;;;;;;;9.05;4.45;;;;;;;;;;5032392;28;20021;-76
2022/10/10 06:05:00;;;;;;;7.80;4.72;;;;;;;;;;5014083;28;20074;-76
2022/10/10 06:07:25;;;;;;;8.82;4.53;;;;;;;;;;5014331;28;20070;-77
2022/10/10 06:09:50;;;;;;;7.90;4.80;;;;;;;;;;5013684;28;20020;-77
2022/10/10 06:12:16;;;;;;;8.75;4.38;;;;;;;;;;5036010;28;20884;-76
2022/10/10 06:14:41;;;;;;;7.78;4.55;;;;;;;;;;5024567;28;20039;-76
2022/10/10 06:17:07;;;;;;;7.43;4.78;;;;;;;;;;5007790;28;20020;-76
2022/10/10 06:19:32;;;;;;;7.05;4.35;;;;;;;;;;5014177;28;20175;-76
2022/10/10 06:21:57;;;;;;;7.47;4.20;;;;;;;;;;5012768;28;20833;-76
2022/10/10 06:24:22;;;;;;;8.98;4.78;;;;;;;;;;5036595;28;20029;-76
2022/10/10 06:26:48;;;;;;;7.70;4.63;;;;;;;;;;5012815;28;20032;-76
2022/10/10 06:29:13;;;;;;;6.68;4.43;;;;;;;;;;5013095;28;20012;-77
2022/10/10 06:31:40;;;;;;;9.40;4.53;;;;;;;;;;5015540;28;20031;-76
2022/10/10 06:34:05;;;;;;;8.82;4.32;;;;;;;;;;5014376;28;20024;-77
2022/10/10 06:36:30;;;;;;;8.45;4.63;;;;;;;;;;5013658;28;20060;-77
2022/10/10 06:38:56;;;;;;;6.63;4.22;;;;;;;;;;5031899;28;20025;-77
2022/10/10 06:41:21;;;;;;;7.50;4.93;;;;;;;;;;5031429;28;20128;-77
2022/10/10 06:43:48;;;;;;;10.20;5.43;;;;;;;;;;5033406;28;20918;-76
2022/10/10 06:46:13;;;;;;;8.45;5.13;;;;;;;;;;5016331;28;20020;-75
2022/10/10 06:48:38;;;;;;;9.85;5.63;;;;;;;;;;5011106;28;20448;-76
2022/10/10 06:51:09;;;;;;;11.73;6.03;;;;;;;;;;5015077;28;20848;-76
2022/10/10 06:53:35;;;;;;;13.57;6.43;;;;;;;;;;5014592;28;20012;-76
2022/10/10 06:56:00;;;;;;;10.18;6.28;;;;;;;;;;5015153;28;20971;-77
2022/10/10 06:58:27;;;;;;;19.55;5.75;;;;;;;;;;5025376;28;20020;-76
2022/10/10 07:00:53;;;;;;;7.93;5.38;;;;;;;;;;5011552;28;20074;-76
2022/10/10 07:03:19;;;;;;;8.93;6.45;;;;;;;;;;5013171;28;20056;-76
2022/10/10 07:05:47;;;;;;;9.48;6.72;;;;;;;;;;5058670;28;20731;-76
2022/10/10 07:08:12;;;;;;;11.15;6.90;;;;;;;;;;5014290;28;20097;-76
2022/10/10 07:10:38;;;;;;;15.73;6.35;;;;;;;;;;5030660;28;20024;-76
2022/10/10 07:13:03;;;;;;;11.07;6.90;;;;;;;;;;5014947;28;20021;-76
2022/10/10 07:15:28;;;;;;;8.27;5.93;;;;;;;;;;5021176;28;20556;-77
2022/10/10 07:17:55;;;;;;;15.23;7.10;;;;;;;;;;5014642;28;20850;-76
2022/10/10 07:20:20;;;;;;;10.82;7.38;;;;;;;;;;5044392;28;20344;-77
2022/10/10 07:22:46;;;;;;;10.93;6.72;;;;;;;;;;5013430;28;20898;-77
2022/10/10 07:25:12;;;;;;;13.27;7.38;;;;;;;;;;5015526;28;20861;-76
2022/10/10 07:27:37;;;;;;;15.18;8.27;;;;;;;;;;5028995;28;20063;-77
2022/10/10 07:30:04;;;;;;;10.90;7.13;;;;;;;;;;5013322;28;20028;-76
2022/10/10 07:32:29;;;;;;;9.35;6.03;;;;;;;;;;5020487;28;20870;-76
2022/10/10 07:34:57;;;;;;;9.55;6.57;;;;;;;;;;5015158;28;20127;-76
2022/10/10 07:37:22;;;;;;;11.13;7.00;;;;;;;;;;5014336;28;20947;-77
2022/10/10 07:39:47;;;;;;;8.85;5.85;;;;;;;;;;5008604;28;20043;-76
2022/10/10 07:42:12;;;;;;;8.57;6.13;;;;;;;;;;5012675;28;20023;-77
2022/10/10 07:44:38;;;;;;;10.07;5.60;;;;;;;;;;5011638;28;20828;-76
2022/10/10 07:47:03;;;;;;;12.63;5.70;;;;;;;;;;5010308;28;21208;-78
2022/10/10 07:49:28;;;;;;;8.02;5.38;;;;;;;;;;5012917;28;20834;-78
2022/10/10 07:51:53;;;;;;;9.50;5.25;;;;;;;;;;5020254;28;20108;-77
2022/10/10 07:54:19;;;;;;;10.50;5.38;;;;;;;;;;5005734;28;20274;-79
2022/10/10 07:56:44;;;;;;;7.63;4.95;;;;;;;;;;5022367;28;20542;-79
2022/10/10 07:59:09;;;;;;;9.75;5.10;;;;;;;;;;5021665;28;20020;-78
2022/10/10 08:01:37;;;;;;;7.60;4.45;;;;;;;;;;5031187;28;20051;-77
2022/10/10 08:04:02;;;;;;;12.15;5.43;;;;;;;;;;5013649;28;20048;-77
2022/10/10 08:06:27;;;;;;;10.40;4.53;;;;;;;;;;5006244;28;20172;-80
2022/10/10 08:08:53;;;;;;;12.65;4.63;;;;;;;;;;5014506;28;20273;-78
2022/10/10 08:11:20;;;;;;;7.28;4.32;;;;;;;;;;5029710;28;20870;-82
2022/10/10 08:13:45;;;;;;;18.67;5.55;;;;;;;;;;5015358;28;20020;-81
2022/10/10 08:16:10;;;;;;;11.43;4.57;;;;;;;;;;5014387;28;20028;-80
2022/10/10 08:18:36;;;;;;;10.02;4.15;;;;;;;;;;5013797;28;20012;-79
2022/10/10 08:21:03;;;;;;;7.82;3.63;;;;;;;;;;5019603;28;20852;-79
2022/10/10 08:23:28;;;;;;;11.60;4.00;;;;;;;;;;5015831;28;20024;-77
2022/10/10 08:25:56;;;;;;;4.82;3.38;;;;;;;;;;5050688;28;20017;-80
2022/10/10 08:28:21;;;;;;;13.98;4.28;;;;;;;;;;5052176;28;20025;-79
2022/10/10 08:30:47;;;;;;;9.57;3.70;;;;;;;;;;5053839;28;20460;-78
2022/10/10 08:33:12;;;;;;;10.70;3.45;;;;;;;;;;5053420;28;20020;-78
2022/10/10 08:35:38;;;;;;;14.35;3.78;;;;;;;;;;5070946;28;20024;-79
2022/10/10 08:38:03;;;;;;;6.90;3.22;;;;;;;;;;5069062;28;20025;-80
2022/10/10 08:40:29;;;;;;;16.23;3.95;;;;;;;;;;5068953;28;20031;-79
2022/10/10 08:42:55;;;;;;;9.35;3.10;;;;;;;;;;5068005;28;20472;-80
2022/10/10 08:45:23;;;;;;;7.00;3.17;;;;;;;;;;5071006;28;20351;-79
2022/10/10 08:47:49;;;;;;;9.02;3.85;;;;;;;;;;5048029;28;20024;-80
2022/10/10 08:50:24;;;;;;;12.07;3.88;;;;;;;;;;5050335;28;20024;-78
2022/10/10 08:52:49;;;;;;;;;;;;;;;;;;5058245;28;20495;-80
2022/10/10 08:55:14;;;;;;;8.82;3.20;;;;;;;;;;5074742;28;19983;-80
2022/10/10 08:57:46;;;;;;;7.15;3.30;;;;;;;;;;5057218;28;20016;-79
2022/10/10 09:00:14;;;;;;;9.50;3.60;;;;;;;;;;5090699;28;20286;-80
2022/10/10 09:02:55;;;;;;;7.63;3.50;;;;;;;;;;5075207;28;20023;-80
2022/10/10 09:05:38;;;;;;;13.40;3.63;;;;;;;;;;5056691;28;20566;-79
2022/10/10 09:08:09;;;;;;;10.30;4.03;;;;;;;;;;5075131;28;20039;-81
2022/10/10 09:10:34;;;;;;;11.27;3.40;;;;;;;;;;5088377;28;20359;-79
2022/10/10 09:13:12;;;;;;;10.77;3.90;;;;;;;;;;5078847;28;20027;-79
2022/10/10 09:15:47;;;;;;;10.30;3.42;;;;;;;;;;5059033;28;20028;-80
2022/10/10 09:18:38;;;;;;;13.00;4.25;;;;;;;;;;5082956;28;20481;-80
2022/10/10 09:21:06;;;;;;;5.97;3.05;;;;;;;;;;5074665;28;20025;-81
2022/10/10 09:23:35;;;;;;;7.47;3.13;;;;;;;;;;5057210;28;20025;-81
2022/10/10 09:26:00;;;;;;;8.43;3.08;;;;;;;;;;5056579;28;20044;-80
2022/10/10 09:28:37;;;;;;;12.13;4.03;;;;;;;;;;5056693;28;20183;-74
2022/10/10 09:31:04;;;;;;;7.47;3.25;;;;;;;;;;5056454;28;20328;-80
2022/10/10 09:33:52;;;;;;;10.50;3.55;;;;;;;;;;5056585;28;20023;-81
2022/10/10 09:36:20;;;;;;;13.63;3.63;;;;;;;;;;5045896;28;20020;-80
2022/10/10 09:38:56;;;;;;;7.97;2.88;;;;;;;;;;5056785;28;20027;-78
2022/10/10 09:41:38;;;;;;;7.55;3.45;;;;;;;;;;5053474;28;20024;-81
2022/10/10 09:44:04;;;;;;;11.55;4.13;;;;;;;;;;5065327;28;20059;-78
2022/10/10 09:46:29;;;;;;;9.75;3.97;;;;;;;;;;5055049;28;20067;-81
2022/10/10 09:48:56;;;;;;;10.85;2.70;;;;;;;;;;5073750;28;20711;-80
2022/10/10 09:51:21;;;;;;;9.40;3.92;;;;;;;;;;5056718;28;20020;-79
2022/10/10 09:53:47;;;;;;;12.73;3.80;;;;;;;;;;5074862;28;20351;-79
2022/10/10 09:56:33;;;;;;;12.65;4.18;;;;;;;;;;5074048;28;20285;-79
2022/10/10 09:58:58;;;;;;;13.93;4.28;;;;;;;;;;5068014;28;20048;-79
2022/10/10 10:01:27;;;;;;;13.20;3.30;;;;;;;;;;5037302;28;20086;-81
2022/10/10 10:04:12;;;;;;;10.55;3.97;;;;;;;;;;5051488;28;20786;-79
2022/10/10 10:06:38;;;;;;;10.50;4.47;;;;;;;;;;5073629;28;20655;-80
2022/10/10 10:09:05;;;;;;;7.57;3.78;;;;;;;;;;5058400;28;20020;-80
2022/10/10 10:11:33;;;;;;;15.55;3.75;;;;;;;;;;5073960;28;20012;-80
2022/10/10 10:14:01;;;;;;;12.23;4.57;;;;;;;;;;5077874;28;20091;-80
2022/10/10 10:16:31;;;;;;;12.13;3.60;;;;;;;;;;5070269;28;20013;-80
2022/10/10 10:18:56;;;;;;;9.18;3.67;;;;;;;;;;5068161;28;20025;-80
2022/10/10 10:21:22;;;;;;;19.08;4.68;;;;;;;;;;5070562;28;20035;-79
2022/10/10 10:24:01;;;;;;;14.30;3.92;;;;;;;;;;5048628;28;20464;-81
2022/10/10 10:26:29;;;;;;;11.98;3.45;;;;;;;;;;5054714;28;20111;-80
2022/10/10 10:28:56;;;;;;;14.82;4.57;;;;;;;;;;5055988;28;20463;-79
2022/10/10 10:31:21;;;;;;;10.98;3.83;;;;;;;;;;5053416;28;20044;-76
2022/10/10 10:34:02;;;;;;;10.27;3.90;;;;;;;;;;5051024;28;20486;-78
2022/10/10 10:36:28;;;;;;;14.20;4.68;;;;;;;;;;5055582;28;20016;-77
2022/10/10 10:38:58;;;;;;;12.23;3.73;;;;;;;;;;5055945;28;20489;-80
2022/10/10 10:41:28;;;;;;;12.00;3.75;;;;;;;;;;5088933;28;20364;-79
2022/10/10 10:43:53;;;;;;;7.95;3.60;;;;;;;;;;5073523;28;20021;-80
2022/10/10 10:46:26;;;;;;;12.27;4.03;;;;;;;;;;5055591;28;20035;-78
2022/10/10 10:49:15;;;;;;;9.00;3.95;;;;;;;;;;5052375;28;21083;-79
2022/10/10 10:51:55;;;;;;;10.52;4.07;;;;;;;;;;5037026;28;20025;-80
2022/10/10 10:54:39;;;;;;;10.75;3.58;;;;;;;;;;5073563;28;20027;-79
2022/10/10 10:57:08;;;;;;;20.67;4.50;;;;;;;;;;5070209;28;20021;-80
2022/10/10 10:59:45;;;;;;;12.70;4.03;;;;;;;;;;5054768;28;20021;-80
2022/10/10 11:02:29;;;;;;;9.75;3.70;;;;;;;;;;5053438;28;20051;-79
2022/10/10 11:04:55;;;;;;;13.02;4.53;;;;;;;;;;5050896;28;20047;-78
2022/10/10 11:07:21;;;;;;;15.70;4.63;;;;;;;;;;5050232;28;20037;-80
2022/10/10 11:10:05;;;;;;;13.02;4.07;;;;;;;;;;5051834;28;20410;-79
2022/10/10 11:12:49;;;;;;;9.27;3.20;;;;;;;;;;5055505;28;20116;-80
2022/10/10 11:15:47;;;;;;;14.25;3.50;;;;;;;;;;5060009;28;20047;-79
2022/10/10 11:18:34;;;;;;;12.10;4.10;;;;;;;;;;5022775;28;20044;-80
2022/10/10 11:21:08;;;;;;;8.13;3.22;;;;;;;;;;5073330;28;20032;-81
2022/10/10 11:23:37;;;;;;;8.77;4.00;;;;;;;;;;5072756;28;20089;-80
2022/10/10 11:26:05;;;;;;;28.38;4.97;;;;;;;;;;5051052;28;20098;-80
2022/10/10 11:28:43;;;;;;;17.50;5.03;;;;;;;;;;5071771;28;20179;-79
2022/10/10 11:31:18;;;;;;;17.60;4.68;;;;;;;;;;5072911;28;20039;-81
2022/10/10 11:33:46;;;;;;;12.43;4.20;;;;;;;;;;5052869;28;20020;-80
2022/10/10 11:36:16;;;;;;;9.07;3.83;;;;;;;;;;5054588;28;20078;-76
2022/10/10 11:38:46;;;;;;;12.63;4.45;;;;;;;;;;5087915;28;20454;-81
2022/10/10 11:41:22;;;;;;;11.35;4.25;;;;;;;;;;5054800;28;20021;-80
2022/10/10 11:43:51;;;;;;;10.88;3.80;;;;;;;;;;5052896;28;20021;-80
2022/10/10 11:46:36;;;;;;;14.52;4.53;;;;;;;;;;5071807;28;20506;-80
2022/10/10 11:49:22;;;;;;;10.93;4.80;;;;;;;;;;5050867;28;20017;-80
2022/10/10 11:51:56;;;;;;;10.18;3.78;;;;;;;;;;5045861;28;20032;-78
2022/10/10 11:54:21;;;;;;;;;;;;;;;;;;5074713;28;20013;-81
2022/10/10 11:56:48;;;;;;;16.15;4.80;;;;;;;;;;5087244;28;20303;-81
2022/10/10 11:59:13;;;;;;;14.48;4.53;;;;;;;;;;5051934;28;20031;-81
2022/10/10 12:01:45;;;;;;;23.05;4.68;;;;;;;;;;5053900;28;20112;-80
2022/10/10 12:04:10;;;;;;;13.10;4.32;;;;;;;;;;5035114;28;20017;-79
2022/10/10 12:06:57;;;;;;;20.33;4.83;;;;;;;;;;5047553;28;20131;-80
2022/10/10 12:09:28;;;;;;;19.48;5.03;;;;;;;;;;5053856;28;20271;-79
2022/10/10 12:11:56;;;;;;;16.15;4.97;;;;;;;;;;5072134;28;20031;-80
2022/10/10 12:14:23;;;;;;;23.05;4.72;;;;;;;;;;5071815;28;20039;-82
2022/10/10 12:16:49;;;;;;;13.05;4.72;;;;;;;;;;5053751;28;20028;-82
2022/10/10 12:19:19;;;;;;;7.70;3.45;;;;;;;;;;5071260;28;20012;-81
2022/10/10 12:21:56;;;;;;;9.68;4.03;;;;;;;;;;5053869;28;20154;-81
2022/10/10 12:24:22;;;;;;;14.15;4.82;;;;;;;;;;5075425;28;20081;-82
2022/10/10 12:26:53;;;;;;;16.23;4.50;;;;;;;;;;5064446;28;20021;-81
2022/10/10 12:29:37;;;;;;;12.63;3.70;;;;;;;;;;5056823;28;20107;-78
2022/10/10 12:32:16;;;;;;;24.02;5.18;;;;;;;;;;5076062;28;20043;-81
2022/10/10 12:34:47;;;;;;;11.05;3.80;;;;;;;;;;5057599;28;20032;-80
2022/10/10 12:37:29;;;;;;;8.88;4.32;;;;;;;;;;5069284;28;20024;-81
2022/10/10 12:40:20;;;;;;;14.75;4.47;;;;;;;;;;5088812;28;20017;-79
2022/10/10 12:42:45;;;;;;;11.45;4.10;;;;;;;;;;5072348;28;20112;-83
2022/10/10 12:45:29;;;;;;;9.30;3.57;;;;;;;;;;5081453;28;20099;-77
2022/10/10 12:47:58;;;;;;;13.40;4.50;;;;;;;;;;5065724;28;20033;-77
2022/10/10 12:50:28;;;;;;;22.40;4.65;;;;;;;;;;5069826;28;20016;-78
2022/10/10 12:52:57;;;;;;;9.23;3.60;;;;;;;;;;5057418;28;20416;-78
2022/10/10 12:55:26;;;;;;;18.50;3.60;;;;;;;;;;5050896;28;20013;-82
2022/10/10 12:57:52;;;;;;;8.93;3.85;;;;;;;;;;5074843;28;20030;-77
2022/10/10 13:00:22;;;;;;;14.55;4.38;;;;;;;;;;5075568;28;20073;-75
2022/10/10 13:02:55;;;;;;;9.45;3.70;;;;;;;;;;5075115;28;20052;-76
2022/10/10 13:05:27;;;;;;;9.35;4.15;;;;;;;;;;5057402;28;20518;-77
2022/10/10 13:07:54;;;;;;;12.20;4.20;;;;;;;;;;5051504;28;20055;-78
2022/10/10 13:10:23;;;;;;;12.73;3.83;;;;;;;;;;5090534;28;20403;-77
2022/10/10 13:12:58;;;;;;;8.52;3.47;;;;;;;;;;5074332;28;20028;-77
2022/10/10 13:15:24;;;;;;;12.70;3.38;;;;;;;;;;5075221;28;20016;-76
2022/10/10 13:17:49;;;;;;;8.30;3.88;;;;;;;;;;5056879;28;20095;-77
2022/10/10 13:20:33;;;;;;;11.03;3.80;;;;;;;;;;5073546;28;20050;-77
2022/10/10 13:23:02;;;;;;;7.67;3.17;;;;;;;;;;5055473;28;20281;-78
2022/10/10 13:25:27;;;;;;;11.90;3.85;;;;;;;;;;5057045;28;20123;-77
2022/10/10 13:27:52;;;;;;;13.43;4.38;;;;;;;;;;5036754;28;20085;-77
2022/10/10 13:30:19;;;;;;;9.13;3.75;;;;;;;;;;5064202;28;20072;-77
2022/10/10 13:32:44;;;;;;;9.50;3.65;;;;;;;;;;5075417;28;20017;-76
2022/10/10 13:35:16;;;;;;;6.07;3.42;;;;;;;;;;5046025;28;20023;-78
2022/10/10 13:37:42;;;;;;;7.47;4.00;;;;;;;;;;5073134;28;20020;-77
2022/10/10 13:40:17;;;;;;;8.43;4.10;;;;;;;;;;5075346;28;20012;-77
2022/10/10 13:42:44;;;;;;;10.73;4.05;;;;;;;;;;5073220;28;20020;-77
2022/10/10 13:45:22;;;;;;;14.50;4.20;;;;;;;;;;5072302;28;20143;-76
2022/10/10 13:47:59;;;;;;;10.77;3.45;;;;;;;;;;5061459;28;20390;-77
2022/10/10 13:50:32;;;;;;;9.95;3.85;;;;;;;;;;5074324;28;20024;-77
2022/10/10 13:53:16;;;;;;;18.35;3.80;;;;;;;;;;5056862;28;20471;-77
2022/10/10 13:55:42;;;;;;;11.07;4.10;;;;;;;;;;5054264;28;20078;-75
2022/10/10 13:58:08;;;;;;;8.02;3.55;;;;;;;;;;5068573;28;20847;-76
2022/10/10 14:00:35;;;;;;;12.57;3.97;;;;;;;;;;5041016;28;20034;-75
2022/10/10 14:03:01;;;;;;;13.25;4.32;;;;;;;;;;5056085;28;20016;-75
2022/10/10 14:05:29;;;;;;;15.13;4.68;;;;;;;;;;5074793;28;20360;-75
2022/10/10 14:07:54;;;;;;;7.15;3.50;;;;;;;;;;5070422;28;20024;-75
2022/10/10 14:10:24;;;;;;;9.23;3.80;;;;;;;;;;5073229;28;20065;-75
2022/10/10 14:12:57;;;;;;;8.10;3.95;;;;;;;;;;5055820;28;20149;-75
2022/10/10 14:15:40;;;;;;;10.10;4.22;;;;;;;;;;5056613;28;20120;-75
2022/10/10 14:18:13;;;;;;;15.88;3.97;;;;;;;;;;5044070;28;20019;-75
2022/10/10 14:20:38;;;;;;;7.90;3.63;;;;;;;;;;5051473;28;20021;-77
2022/10/10 14:23:03;;;;;;;9.13;3.60;;;;;;;;;;5076043;28;20021;-72
2022/10/10 14:25:30;;;;;;;12.20;4.20;;;;;;;;;;5063597;28;20373;-72
2022/10/10 14:27:55;;;;;;;15.52;4.35;;;;;;;;;;5089377;28;20103;-73
2022/10/10 14:30:20;;;;;;;10.50;4.43;;;;;;;;;;5056403;28;20558;-71
2022/10/10 14:32:46;;;;;;;11.88;4.57;;;;;;;;;;5044191;28;20020;-71
2022/10/10 14:35:12;;;;;;;10.57;4.00;;;;;;;;;;5065853;28;20017;-78
2022/10/10 14:37:37;;;;;;;8.75;4.35;;;;;;;;;;5073797;28;20028;-81
2022/10/10 14:40:03;;;;;;;6.28;3.55;;;;;;;;;;5063727;28;20111;-73
2022/10/10 14:42:28;;;;;;;8.85;4.10;;;;;;;;;;5073834;28;20032;-71
2022/10/10 14:44:54;;;;;;;9.93;3.73;;;;;;;;;;5073163;28;20040;-73